Agios Georgios I — SX9857 — position and weather

sailwx.info

Track history (hours):
 
Tides and Currents Weather Stations Pressure Air Temp Water Temp Dewpoint Dewpoint Depression Visibility Wind Speed Wind Dir Waves Ship Positions

Agios Georgios I

Last reported at 2016-Aug-24 06:04 UTC. Time now 2016-Aug-27 04:39 UTC.
Position N 37°37' E 025°39'.

Length 59 m; draft 5 m.

Type: Ship (hazmat cat B). MMSI: 239912000.

Date/timePositionNaut miles runAvg speedWind from/ knotsBaromVisibWave heightAir tempDewpointWater temp
2016-Aug-24 06:04N 37°37' E 025°39'12 7.6
2016-Aug-24 04:34N 37°33' E 025°26'7 7.3
2016-Aug-24 03:33N 37°31' E 025°17'7 7.1
2016-Aug-24 02:34N 37°31' E 025°08'15 7.7
2016-Aug-24 00:34N 37°31' E 024°48'40 7.7
2016-Aug-23 19:23N 37°35' E 023°58'7 8.6
2016-Aug-23 18:34N 37°38' E 023°50'8 7.8
2016-Aug-23 17:34N 37°42' E 023°41'9 8.5
2016-Aug-23 16:34N 37°49' E 023°37'8 8.2
2016-Aug-23 15:34N 37°57' E 023°35'0 0.2
2016-Aug-23 14:34N 37°57' E 023°35'0 0.0
2016-Aug-23 13:34N 37°57' E 023°35'0 0.0
2016-Aug-23 12:34N 37°57' E 023°35'0 0.0
2016-Aug-23 11:34N 37°57' E 023°35'0 0.0
2016-Aug-23 10:34N 37°57' E 023°35'0 0.0
2016-Aug-23 09:34N 37°57' E 023°35'0 0.0
2016-Aug-23 08:34N 37°57' E 023°35'0 0.0
2016-Aug-23 07:34N 37°57' E 023°35'0 0.0
2016-Aug-23 06:33N 37°57' E 023°35'0 0.0
2016-Aug-23 05:34N 37°57' E 023°35'0 0.0
2016-Aug-23 04:34N 37°57' E 023°35'0 0.2
2016-Aug-23 03:33N 37°57' E 023°35'8 7.8
2016-Aug-23 02:33N 37°50' E 023°39'8 8.0
2016-Aug-23 01:34N 37°43' E 023°43'8 7.9
2016-Aug-23 00:33N 37°38' E 023°51'8 7.8
2016-Aug-22 23:33N 37°36' E 024°00'9 8.2
2016-Aug-22 22:26N 37°33' E 024°11'26 8.2
2016-Aug-22 19:17N 37°32' E 024°44'15 1.6
2016-Aug-22 10:12N 37°29' E 025°02'5 8.6
2016-Aug-22 09:34N 37°32' E 025°08'1 1.1
2016-Aug-22 08:34N 37°32' E 025°09'0 0.0
2016-Aug-22 07:34N 37°32' E 025°09'0 0.0
2016-Aug-22 06:33N 37°32' E 025°09'0 0.0
2016-Aug-22 05:34N 37°32' E 025°09'1 1.1
2016-Aug-22 04:34N 37°32' E 025°08'9 8.7
2016-Aug-22 03:33N 37°37' E 024°59'  
2016-Aug-18 03:23N 37°59' E 024°43'7 8.7
2016-Aug-18 02:34N 37°55' E 024°36'9 8.7
2016-Aug-18 01:34N 37°50' E 024°27'9 9.0
2016-Aug-18 00:34N 37°44' E 024°18'11 8.8
2016-Aug-17 23:22N 37°38' E 024°08'7 8.8
2016-Aug-17 22:32N 37°37' E 023°59'8 8.4
2016-Aug-17 21:34N 37°38' E 023°48'7 7.0
2016-Aug-17 20:34N 37°42' E 023°41'8 8.4
2016-Aug-17 19:34N 37°50' E 023°37'8 7.8
2016-Aug-17 18:34N 37°57' E 023°35'0 0.2
2016-Aug-17 17:34N 37°57' E 023°35'0 0.0
2016-Aug-17 16:34N 37°57' E 023°35'0 0.0
2016-Aug-17 15:34N 37°57' E 023°35'0 0.0
2016-Aug-17 14:34N 37°57' E 023°35'0 0.0
2016-Aug-17 13:34N 37°57' E 023°35'0 0.0
2016-Aug-17 12:34N 37°57' E 023°35'0 0.0
2016-Aug-17 11:34N 37°57' E 023°35'0 0.0
2016-Aug-17 10:34N 37°57' E 023°35'0 0.0
2016-Aug-17 09:34N 37°57' E 023°35'0 0.0
2016-Aug-17 08:34N 37°57' E 023°35'0 0.0
2016-Aug-17 07:34N 37°57' E 023°35'1 1.1
2016-Aug-17 06:34N 37°56' E 023°35'8 8.2
2016-Aug-17 05:34N 37°49' E 023°40'8 8.0
2016-Aug-17 04:34N 37°42' E 023°44'8 7.9
2016-Aug-17 03:33N 37°38' E 023°53'42 7.0
2016-Aug-16 21:34N 37°31' E 024°45'15 7.3
2016-Aug-16 19:34N 37°32' E 025°04'2 2.3
2016-Aug-16 18:33N 37°30' E 025°05'7 0.4
2016-Aug-16 01:09N 37°25' E 024°58'4 0.7
2016-Aug-15 19:21N 37°30' E 024°58'  
Track history (hours):
 
Tides and Currents Weather Stations Pressure Air Temp Water Temp Dewpoint Dewpoint Depression Visibility Wind Speed Wind Dir Waves Ship Positions

Agios Georgios I

Last reported at 2016-Aug-24 06:04 UTC. Time now 2016-Aug-27 04:39 UTC.
Position N 37°37' E 025°39'.

Length 59 m; draft 5 m.

Type: Ship (hazmat cat B). MMSI: 239912000.

Date/timePositionNaut miles runAvg speedWind from/ knotsBaromVisibWave heightAir tempDewpointWater temp
2016-Aug-24 06:04N 37°37' E 025°39'12 7.6
2016-Aug-24 04:34N 37°33' E 025°26'7 7.3
2016-Aug-24 03:33N 37°31' E 025°17'7 7.1
2016-Aug-24 02:34N 37°31' E 025°08'15 7.7
2016-Aug-24 00:34N 37°31' E 024°48'40 7.7
2016-Aug-23 19:23N 37°35' E 023°58'7 8.6
2016-Aug-23 18:34N 37°38' E 023°50'8 7.8
2016-Aug-23 17:34N 37°42' E 023°41'9 8.5
2016-Aug-23 16:34N 37°49' E 023°37'8 8.2
2016-Aug-23 15:34N 37°57' E 023°35'0 0.2
2016-Aug-23 14:34N 37°57' E 023°35'0 0.0
2016-Aug-23 13:34N 37°57' E 023°35'0 0.0
2016-Aug-23 12:34N 37°57' E 023°35'0 0.0
2016-Aug-23 11:34N 37°57' E 023°35'0 0.0
2016-Aug-23 10:34N 37°57' E 023°35'0 0.0
2016-Aug-23 09:34N 37°57' E 023°35'0 0.0
2016-Aug-23 08:34N 37°57' E 023°35'0 0.0
2016-Aug-23 07:34N 37°57' E 023°35'0 0.0
2016-Aug-23 06:33N 37°57' E 023°35'0 0.0
2016-Aug-23 05:34N 37°57' E 023°35'0 0.0
2016-Aug-23 04:34N 37°57' E 023°35'0 0.2
2016-Aug-23 03:33N 37°57' E 023°35'8 7.8
2016-Aug-23 02:33N 37°50' E 023°39'8 8.0
2016-Aug-23 01:34N 37°43' E 023°43'8 7.9
2016-Aug-23 00:33N 37°38' E 023°51'8 7.8
2016-Aug-22 23:33N 37°36' E 024°00'9 8.2
2016-Aug-22 22:26N 37°33' E 024°11'26 8.2
2016-Aug-22 19:17N 37°32' E 024°44'15 1.6
2016-Aug-22 10:12N 37°29' E 025°02'5 8.6
2016-Aug-22 09:34N 37°32' E 025°08'1 1.1
2016-Aug-22 08:34N 37°32' E 025°09'0 0.0
2016-Aug-22 07:34N 37°32' E 025°09'0 0.0
2016-Aug-22 06:33N 37°32' E 025°09'0 0.0
2016-Aug-22 05:34N 37°32' E 025°09'1 1.1
2016-Aug-22 04:34N 37°32' E 025°08'9 8.7
2016-Aug-22 03:33N 37°37' E 024°59'  
2016-Aug-18 03:23N 37°59' E 024°43'7 8.7
2016-Aug-18 02:34N 37°55' E 024°36'9 8.7
2016-Aug-18 01:34N 37°50' E 024°27'9 9.0
2016-Aug-18 00:34N 37°44' E 024°18'11 8.8
2016-Aug-17 23:22N 37°38' E 024°08'7 8.8
2016-Aug-17 22:32N 37°37' E 023°59'8 8.4
2016-Aug-17 21:34N 37°38' E 023°48'7 7.0
2016-Aug-17 20:34N 37°42' E 023°41'8 8.4
2016-Aug-17 19:34N 37°50' E 023°37'8 7.8
2016-Aug-17 18:34N 37°57' E 023°35'0 0.2
2016-Aug-17 17:34N 37°57' E 023°35'0 0.0
2016-Aug-17 16:34N 37°57' E 023°35'0 0.0
2016-Aug-17 15:34N 37°57' E 023°35'0 0.0
2016-Aug-17 14:34N 37°57' E 023°35'0 0.0
2016-Aug-17 13:34N 37°57' E 023°35'0 0.0
2016-Aug-17 12:34N 37°57' E 023°35'0 0.0
2016-Aug-17 11:34N 37°57' E 023°35'0 0.0
2016-Aug-17 10:34N 37°57' E 023°35'0 0.0
2016-Aug-17 09:34N 37°57' E 023°35'0 0.0
2016-Aug-17 08:34N 37°57' E 023°35'0 0.0
2016-Aug-17 07:34N 37°57' E 023°35'1 1.1
2016-Aug-17 06:34N 37°56' E 023°35'8 8.2
2016-Aug-17 05:34N 37°49' E 023°40'8 8.0
2016-Aug-17 04:34N 37°42' E 023°44'8 7.9
2016-Aug-17 03:33N 37°38' E 023°53'42 7.0
2016-Aug-16 21:34N 37°31' E 024°45'15 7.3
2016-Aug-16 19:34N 37°32' E 025°04'2 2.3
2016-Aug-16 18:33N 37°30' E 025°05'7 0.4
2016-Aug-16 01:09N 37°25' E 024°58'4 0.7
2016-Aug-15 19:21N 37°30' E 024°58'  

Dump ship's entire track history